createdAt,value
2022-09-17T00:01:15.571Z,10.10
2022-09-17T00:03:42.285Z,10.10
2022-09-17T00:06:11.802Z,10.10
2022-09-17T00:08:41.137Z,10.10
2022-09-17T00:11:23.252Z,10.10
2022-09-17T00:13:52.165Z,8.90
2022-09-17T00:16:43.069Z,10.10
2022-09-17T00:19:15.305Z,10.20
2022-09-17T00:21:42.753Z,10.20
2022-09-17T00:24:12.899Z,10.20
2022-09-17T00:26:39.837Z,10.20
2022-09-17T00:29:07.168Z,10.10
2022-09-17T00:31:34.692Z,10.10
2022-09-17T00:34:03.854Z,10.00
2022-09-17T00:36:31.615Z,10.00
2022-09-17T00:38:59.816Z,10.10
2022-09-17T00:41:30.249Z,10.00
2022-09-17T00:43:59.811Z,10.00
2022-09-17T00:46:38.187Z,10.00
2022-09-17T00:49:15.289Z,10.00
2022-09-17T00:51:49.749Z,10.00
2022-09-17T00:54:16.649Z,10.00
2022-09-17T00:56:44.375Z,9.90
2022-09-17T00:59:11.330Z,10.00
2022-09-17T01:01:39.057Z,10.00
2022-09-17T01:04:06.297Z,9.90
2022-09-17T01:06:36.098Z,9.80
2022-09-17T01:09:13.431Z,9.70
2022-09-17T01:11:43.257Z,9.60
2022-09-17T01:14:34.437Z,9.70
2022-09-17T01:17:30.141Z,9.70
2022-09-17T01:20:18.052Z,9.70
2022-09-17T01:23:22.172Z,9.60
2022-09-17T01:28:41.133Z,9.80
2022-09-17T01:31:45.079Z,9.80
2022-09-17T01:34:27.397Z,9.70
2022-09-17T01:37:03.656Z,9.70
2022-09-17T01:39:39.189Z,9.70
2022-09-17T01:42:17.117Z,9.70
2022-09-17T01:44:55.833Z,9.70
2022-09-17T01:47:37.282Z,9.70
2022-09-17T01:50:10.692Z,9.70
2022-09-17T01:52:41.758Z,9.70
2022-09-17T01:55:11.455Z,9.60
2022-09-17T01:57:58.080Z,9.60
2022-09-17T02:00:25.118Z,9.70
2022-09-17T02:03:06.891Z,9.60
2022-09-17T02:05:49.650Z,9.70
2022-09-17T02:08:23.547Z,9.60
2022-09-17T02:10:58.556Z,9.50
2022-09-17T02:13:32.878Z,9.50
2022-09-17T02:16:09.558Z,9.50
2022-09-17T02:19:20.285Z,9.50
2022-09-17T02:21:50.106Z,9.40
2022-09-17T02:24:25.281Z,9.40
2022-09-17T02:27:06.559Z,9.30
2022-09-17T02:29:39.453Z,9.30
2022-09-17T02:32:06.882Z,9.30
2022-09-17T02:34:34.374Z,9.30
2022-09-17T02:37:01.760Z,9.30
2022-09-17T02:39:29.078Z,9.40
2022-09-17T02:42:07.082Z,9.30
2022-09-17T02:44:37.752Z,9.40
2022-09-17T02:47:04.575Z,9.50
2022-09-17T02:50:18.743Z,9.50
2022-09-17T02:53:03.702Z,9.30
2022-09-17T02:55:49.757Z,9.30
2022-09-17T02:58:47.495Z,9.40
2022-09-17T03:01:28.823Z,9.20
2022-09-17T03:03:58.449Z,9.20
2022-09-17T03:06:25.708Z,9.00
2022-09-17T03:08:52.639Z,9.10
2022-09-17T03:11:19.453Z,9.10
2022-09-17T03:13:46.372Z,9.00
2022-09-17T03:16:13.348Z,9.00
2022-09-17T03:18:40.273Z,9.10
2022-09-17T03:21:07.179Z,8.90
2022-09-17T03:23:34.309Z,9.00
2022-09-17T03:26:01.266Z,9.10
2022-09-17T03:28:28.143Z,9.00
2022-09-17T03:30:55.306Z,8.90
2022-09-17T03:33:22.262Z,8.90
2022-09-17T03:35:49.237Z,8.80
2022-09-17T03:38:16.203Z,8.90
2022-09-17T03:40:43.348Z,9.00
2022-09-17T03:43:10.303Z,9.10
2022-09-17T03:45:37.250Z,9.00
2022-09-17T03:48:04.207Z,9.00
2022-09-17T03:50:31.688Z,9.20
2022-09-17T03:52:59.589Z,9.10
2022-09-17T03:55:26.399Z,8.80
2022-09-17T03:57:53.302Z,8.80
2022-09-17T04:00:20.221Z,8.70
2022-09-17T04:02:47.746Z,8.60
2022-09-17T04:05:14.812Z,8.70
2022-09-17T04:07:41.774Z,8.60
2022-09-17T04:10:09.433Z,8.60
2022-09-17T04:12:36.601Z,8.50
2022-09-17T04:15:04.398Z,8.40
2022-09-17T04:17:31.348Z,8.40
2022-09-17T04:19:58.551Z,8.50
2022-09-17T04:22:26.161Z,8.60
2022-09-17T04:24:53.010Z,8.50
2022-09-17T04:27:19.864Z,8.30
2022-09-17T04:29:46.849Z,8.20
2022-09-17T04:32:13.814Z,8.10
2022-09-17T04:34:40.632Z,8.30
2022-09-17T04:37:07.883Z,8.50
2022-09-17T04:39:34.730Z,8.60
2022-09-17T04:42:01.774Z,8.80
2022-09-17T04:44:28.639Z,8.70
2022-09-17T04:46:56.294Z,8.50
2022-09-17T04:49:23.198Z,8.40
2022-09-17T04:51:50.041Z,8.50
2022-09-17T04:54:16.928Z,8.40
2022-09-17T04:56:43.798Z,8.60
2022-09-17T04:59:10.730Z,8.60
2022-09-17T05:01:37.756Z,8.50
2022-09-17T05:04:04.775Z,8.70
2022-09-17T05:06:31.696Z,8.80
2022-09-17T05:08:58.960Z,8.80
2022-09-17T05:11:25.979Z,8.70
2022-09-17T05:13:52.850Z,8.90
2022-09-17T05:16:19.926Z,8.90
2022-09-17T05:18:46.922Z,8.80
2022-09-17T05:21:14.327Z,8.70
2022-09-17T05:23:41.173Z,8.70
2022-09-17T05:26:08.256Z,9.00
2022-09-17T05:28:35.323Z,8.90
2022-09-17T05:31:02.759Z,9.00
2022-09-17T05:33:29.782Z,9.00
2022-09-17T05:35:56.929Z,9.30
2022-09-17T05:38:23.805Z,9.40
2022-09-17T05:40:50.742Z,9.20
2022-09-17T05:43:17.971Z,9.20
2022-09-17T05:45:44.934Z,9.30
2022-09-17T05:48:15.536Z,9.50
2022-09-17T05:50:42.855Z,9.50
2022-09-17T05:53:13.756Z,9.50
2022-09-17T05:55:40.885Z,9.60
2022-09-17T05:58:13.210Z,9.70
2022-09-17T06:00:41.789Z,9.90
2022-09-17T06:03:10.800Z,10.00
2022-09-17T06:05:37.918Z,10.10
2022-09-17T06:08:05.799Z,10.30
2022-09-17T06:10:32.943Z,10.50
2022-09-17T06:13:00.476Z,10.70
2022-09-17T06:15:28.791Z,11.30
2022-09-17T06:17:55.658Z,11.80
2022-09-17T06:20:22.737Z,11.70
2022-09-17T06:22:49.554Z,12.20
2022-09-17T06:25:16.474Z,12.20
2022-09-17T06:27:43.317Z,13.00
2022-09-17T06:30:10.442Z,13.20
2022-09-17T06:32:37.274Z,13.20
2022-09-17T06:35:04.324Z,13.80
2022-09-17T06:37:32.594Z,13.10
2022-09-17T06:39:59.720Z,12.60
2022-09-17T06:42:28.591Z,13.40
2022-09-17T06:44:55.451Z,14.00
2022-09-17T06:47:25.250Z,13.90
2022-09-17T06:49:52.850Z,13.60
2022-09-17T06:52:19.724Z,13.50
2022-09-17T06:54:46.595Z,13.70
2022-09-17T06:57:13.481Z,13.80
2022-09-17T06:59:40.393Z,14.50
2022-09-17T07:02:08.685Z,14.90
2022-09-17T07:04:35.964Z,14.90
2022-09-17T07:07:03.145Z,14.20
2022-09-17T07:09:29.967Z,14.50
2022-09-17T07:11:57.536Z,14.80
2022-09-17T07:14:24.931Z,14.60
2022-09-17T07:16:53.180Z,14.50
2022-09-17T07:19:20.406Z,15.30
2022-09-17T07:21:49.187Z,15.20
2022-09-17T07:24:16.012Z,15.10
2022-09-17T07:26:42.904Z,15.90
2022-09-17T07:29:09.861Z,16.10
2022-09-17T07:31:36.998Z,15.70
2022-09-17T07:34:04.111Z,15.90
2022-09-17T07:36:30.938Z,15.60
2022-09-17T07:38:57.816Z,16.70
2022-09-17T07:41:24.777Z,16.20
2022-09-17T07:43:56.561Z,15.70
2022-09-17T07:46:23.484Z,15.80
2022-09-17T07:48:51.807Z,15.80
2022-09-17T07:51:22.042Z,16.20
2022-09-17T07:53:56.050Z,15.70
2022-09-17T07:56:23.527Z,16.20
2022-09-17T07:58:50.850Z,16.70
2022-09-17T08:01:18.933Z,16.30
2022-09-17T08:03:51.155Z,16.70
2022-09-17T08:06:26.252Z,16.50
2022-09-17T08:08:53.155Z,16.10
2022-09-17T08:14:15.027Z,16.50
2022-09-17T08:16:42.334Z,15.70
2022-09-17T08:19:10.999Z,15.50
2022-09-17T08:21:38.422Z,14.90
2022-09-17T08:24:05.400Z,14.90
2022-09-17T08:26:32.741Z,15.20
2022-09-17T08:29:00.436Z,15.40
2022-09-17T08:31:30.188Z,15.60
2022-09-17T08:33:57.814Z,15.80
2022-09-17T08:36:26.379Z,16.00
2022-09-17T08:38:54.838Z,16.10
2022-09-17T08:41:34.733Z,16.40
2022-09-17T08:44:07.027Z,16.90
2022-09-17T08:46:44.541Z,17.30
2022-09-17T08:49:23.251Z,17.40
2022-09-17T08:52:17.214Z,16.80
2022-09-17T08:54:57.253Z,16.70
2022-09-17T08:57:32.971Z,17.30
2022-09-17T09:00:24.014Z,17.60
2022-09-17T09:03:05.987Z,17.90
2022-09-17T09:05:47.762Z,18.00
2022-09-17T09:08:33.795Z,18.00
2022-09-17T09:11:07.173Z,18.30
2022-09-17T09:13:40.911Z,18.30
2022-09-17T09:16:16.107Z,19.00
2022-09-17T09:18:43.481Z,18.60
2022-09-17T09:21:16.199Z,18.20
2022-09-17T09:24:06.518Z,18.80
2022-09-17T09:26:46.067Z,18.70
2022-09-17T09:29:46.307Z,19.10
2022-09-17T09:32:37.417Z,18.60
2022-09-17T09:35:28.524Z,19.30
2022-09-17T09:38:16.880Z,18.90
2022-09-17T09:40:51.707Z,17.90
2022-09-17T09:43:46.606Z,17.60
2022-09-17T09:46:23.448Z,17.60
2022-09-17T09:49:08.793Z,17.50
2022-09-17T09:52:09.006Z,16.70
2022-09-17T09:54:44.407Z,17.60
2022-09-17T09:57:15.121Z,17.80
2022-09-17T09:59:41.952Z,18.20
2022-09-17T10:02:09.528Z,18.70
2022-09-17T10:04:36.648Z,18.30
2022-09-17T10:07:08.686Z,18.50
2022-09-17T10:09:37.368Z,18.60
2022-09-17T10:12:10.907Z,19.00
2022-09-17T10:14:40.023Z,19.60
2022-09-17T10:17:14.487Z,19.00
2022-09-17T10:19:42.561Z,18.90
2022-09-17T10:22:33.235Z,18.20
2022-09-17T10:25:01.840Z,17.70
2022-09-17T10:27:29.847Z,17.50
2022-09-17T10:30:08.672Z,18.10
2022-09-17T10:32:35.593Z,19.10
2022-09-17T10:35:25.123Z,19.60
2022-09-17T10:37:53.846Z,20.30
2022-09-17T10:40:20.682Z,21.00
2022-09-17T10:42:57.185Z,21.30
2022-09-17T10:45:25.562Z,21.10
2022-09-17T10:47:52.929Z,20.20
2022-09-17T10:50:21.550Z,20.70
2022-09-17T10:53:02.127Z,20.40
2022-09-17T10:55:29.616Z,20.40
2022-09-17T10:58:10.007Z,19.10
2022-09-17T11:01:00.693Z,19.10
2022-09-17T11:03:27.576Z,18.40
2022-09-17T11:06:00.249Z,17.60
2022-09-17T11:08:41.925Z,17.60
2022-09-17T11:11:24.114Z,17.90
2022-09-17T11:14:15.911Z,18.00
2022-09-17T11:17:10.248Z,18.20
2022-09-17T11:19:42.973Z,17.70
2022-09-17T11:22:58.375Z,17.80
2022-09-17T11:25:36.827Z,18.10
2022-09-17T11:28:12.270Z,17.60
2022-09-17T11:31:21.684Z,18.20
2022-09-17T11:34:11.337Z,17.70
2022-09-17T11:37:07.187Z,17.60
2022-09-17T11:39:42.290Z,18.30
2022-09-17T11:42:17.726Z,18.10
2022-09-17T11:45:04.406Z,17.50
2022-09-17T11:47:44.760Z,16.90
2022-09-17T11:50:27.813Z,16.50
2022-09-17T11:53:28.710Z,16.80
2022-09-17T11:56:36.948Z,16.70
2022-09-17T11:59:38.645Z,16.70
2022-09-17T12:02:12.033Z,16.70
2022-09-17T12:04:46.918Z,16.70
2022-09-17T12:07:41.641Z,16.80
2022-09-17T12:10:26.850Z,17.10
2022-09-17T12:13:13.916Z,16.70
2022-09-17T12:15:48.666Z,16.50
2022-09-17T12:18:55.175Z,16.40
2022-09-17T12:21:37.850Z,16.30
2022-09-17T12:24:09.955Z,16.00
2022-09-17T12:26:42.696Z,15.60
2022-09-17T12:29:42.989Z,15.40
2022-09-17T12:32:39.741Z,15.50
2022-09-17T12:35:59.744Z,15.10
2022-09-17T12:38:26.742Z,15.50
2022-09-17T12:41:05.836Z,15.20
2022-09-17T12:44:07.841Z,15.00
2022-09-17T12:47:02.162Z,15.00
2022-09-17T12:49:41.621Z,14.80
2022-09-17T12:52:32.478Z,15.00
2022-09-17T12:55:14.235Z,14.80
2022-09-17T12:57:52.845Z,14.90
2022-09-17T13:00:19.757Z,14.60
2022-09-17T13:03:14.134Z,14.50
2022-09-17T13:06:02.626Z,14.60
2022-09-17T13:08:59.740Z,14.60
2022-09-17T13:11:35.014Z,14.70
2022-09-17T13:14:25.511Z,14.50
2022-09-17T13:17:08.273Z,14.60
2022-09-17T13:20:26.566Z,14.40
2022-09-17T13:22:56.236Z,14.60
2022-09-17T13:25:24.808Z,14.40
2022-09-17T13:28:08.805Z,14.30
2022-09-17T13:30:55.501Z,14.20
2022-09-17T13:33:57.878Z,14.20
2022-09-17T13:36:38.501Z,14.00
2022-09-17T13:39:08.699Z,14.00
2022-09-17T13:41:41.787Z,13.90
2022-09-17T13:44:12.596Z,13.90
2022-09-17T13:46:40.124Z,13.60
2022-09-17T13:49:16.232Z,13.50
2022-09-17T13:51:45.893Z,13.20
2022-09-17T13:54:15.487Z,13.10
2022-09-17T13:57:07.990Z,13.20
2022-09-17T13:59:36.818Z,13.40
2022-09-17T14:02:18.895Z,13.30
2022-09-17T14:04:47.136Z,13.20
2022-09-17T14:07:26.959Z,13.20
2022-09-17T14:10:15.630Z,13.40
2022-09-17T14:12:45.204Z,13.30
2022-09-17T14:15:31.930Z,13.50
2022-09-17T14:17:59.008Z,13.50
2022-09-17T14:20:26.510Z,13.60
2022-09-17T14:23:01.400Z,13.50
2022-09-17T14:25:58.035Z,13.50
2022-09-17T14:28:31.563Z,13.60
2022-09-17T14:30:59.458Z,13.70
2022-09-17T14:33:32.746Z,13.70
2022-09-17T14:36:08.441Z,13.70
2022-09-17T14:38:51.324Z,13.60
2022-09-17T14:41:42.222Z,13.70
2022-09-17T14:44:22.269Z,13.80
2022-09-17T14:46:58.595Z,13.80
2022-09-17T14:49:28.230Z,13.90
2022-09-17T14:51:57.040Z,13.90
2022-09-17T14:54:31.233Z,13.90
2022-09-17T14:57:03.135Z,13.90
2022-09-17T14:59:54.197Z,13.90
2022-09-17T15:02:30.425Z,13.80
2022-09-17T15:04:57.717Z,13.70
2022-09-17T15:07:26.162Z,13.70
2022-09-17T15:09:55.546Z,13.80
2022-09-17T15:12:29.861Z,13.90
2022-09-17T15:14:58.073Z,13.80
2022-09-17T15:17:25.163Z,13.90
2022-09-17T15:19:56.838Z,14.40
2022-09-17T15:22:33.672Z,14.80
2022-09-17T15:25:35.979Z,15.20
2022-09-17T15:28:19.338Z,15.30
2022-09-17T15:30:49.947Z,15.00
2022-09-17T15:33:19.240Z,14.80
2022-09-17T15:36:09.565Z,14.40
2022-09-17T15:38:39.154Z,14.30
2022-09-17T15:41:35.091Z,14.40
2022-09-17T15:44:30.726Z,14.30
2022-09-17T15:47:39.631Z,14.10
2022-09-17T15:50:15.686Z,14.00
2022-09-17T15:52:42.736Z,13.90
2022-09-17T15:55:41.097Z,13.90
2022-09-17T15:58:26.990Z,14.10
2022-09-17T16:01:16.612Z,14.10
2022-09-17T16:03:43.678Z,13.70
2022-09-17T16:06:19.525Z,13.50
2022-09-17T16:08:48.827Z,13.40
2022-09-17T16:11:29.634Z,13.10
2022-09-17T16:14:00.086Z,13.00
2022-09-17T16:16:35.040Z,12.90
2022-09-17T16:19:02.813Z,12.90
2022-09-17T16:21:29.674Z,12.90
2022-09-17T16:23:58.142Z,12.80
2022-09-17T16:26:35.048Z,12.60
2022-09-17T16:29:21.279Z,12.50
2022-09-17T16:31:50.198Z,12.40
2022-09-17T16:34:17.086Z,12.30
2022-09-17T16:36:43.958Z,12.20
2022-09-17T16:39:10.819Z,12.20
2022-09-17T16:41:37.628Z,12.10
2022-09-17T16:44:04.542Z,12.00
2022-09-17T16:46:31.458Z,12.20
2022-09-17T16:48:58.319Z,12.20
2022-09-17T16:51:25.150Z,12.10
2022-09-17T16:53:52.731Z,12.00
2022-09-17T16:56:19.877Z,12.00
2022-09-17T16:58:46.698Z,11.80
2022-09-17T17:01:15.616Z,11.80
2022-09-17T17:03:42.813Z,11.90
2022-09-17T17:06:20.499Z,11.80
2022-09-17T17:08:48.011Z,11.80
2022-09-17T17:11:15.117Z,11.80
2022-09-17T17:13:43.366Z,11.70
2022-09-17T17:16:14.019Z,11.60
2022-09-17T17:18:44.590Z,11.70
2022-09-17T17:21:13.577Z,11.70
2022-09-17T17:23:43.549Z,11.60
2022-09-17T17:26:10.557Z,11.60
2022-09-17T17:28:37.946Z,11.50
2022-09-17T17:31:05.721Z,11.50
2022-09-17T17:33:32.968Z,11.60
2022-09-17T17:36:06.655Z,11.60
2022-09-17T17:41:10.710Z,11.40
2022-09-17T17:43:37.974Z,11.20
2022-09-17T17:46:12.671Z,11.30
2022-09-17T17:48:39.760Z,11.10
2022-09-17T17:51:09.028Z,11.20
2022-09-17T17:53:36.857Z,11.10
2022-09-17T17:56:07.753Z,11.20
2022-09-17T17:58:35.838Z,11.10
2022-09-17T18:01:24.204Z,11.10
2022-09-17T18:03:55.484Z,11.10
2022-09-17T18:06:22.516Z,11.10
2022-09-17T18:08:49.433Z,11.20
2022-09-17T18:11:16.321Z,11.30
2022-09-17T18:13:43.254Z,11.20
2022-09-17T18:16:15.119Z,11.20
2022-09-17T18:18:45.100Z,11.20
2022-09-17T18:21:16.106Z,11.20
2022-09-17T18:23:43.597Z,11.20
2022-09-17T18:26:16.715Z,11.10
2022-09-17T18:33:38.861Z,11.10
2022-09-17T18:36:06.252Z,11.10
2022-09-17T18:38:39.714Z,11.10
2022-09-17T18:41:10.361Z,11.00
2022-09-17T18:43:37.304Z,11.00
2022-09-17T18:46:05.613Z,11.00
2022-09-17T18:48:36.327Z,10.90
2022-09-17T18:51:10.090Z,10.90
2022-09-17T18:53:38.531Z,10.90
2022-09-17T18:56:13.637Z,10.90
2022-09-17T19:01:08.655Z,10.80
2022-09-17T19:03:35.940Z,10.80
2022-09-17T19:06:04.493Z,11.00
2022-09-17T19:08:31.448Z,11.00
2022-09-17T19:10:59.163Z,10.80
2022-09-17T19:13:32.799Z,10.80
2022-09-17T19:18:27.893Z,10.90
2022-09-17T19:21:15.588Z,10.80
2022-09-17T19:23:46.946Z,10.70
2022-09-17T19:26:18.993Z,10.60
2022-09-17T19:28:46.114Z,10.80
2022-09-17T19:31:16.602Z,10.60
2022-09-17T19:33:44.671Z,10.80
2022-09-17T19:36:13.417Z,11.00
2022-09-17T19:38:40.688Z,11.10
2022-09-17T19:41:12.676Z,11.20
2022-09-17T19:43:40.298Z,11.20
2022-09-17T19:46:15.777Z,11.00
2022-09-17T19:48:47.992Z,10.90
2022-09-17T19:51:15.946Z,10.80
2022-09-17T19:53:43.406Z,10.90
2022-09-17T19:56:14.256Z,10.70
2022-09-17T19:58:41.927Z,10.80
2022-09-17T20:01:10.033Z,11.00
2022-09-17T20:03:39.601Z,10.90
2022-09-17T20:06:08.965Z,10.70
2022-09-17T20:08:41.114Z,11.00
2022-09-17T20:11:12.035Z,10.70
2022-09-17T20:13:39.601Z,10.70
2022-09-17T20:16:09.077Z,10.80
2022-09-17T20:18:37.266Z,10.80
2022-09-17T20:21:19.550Z,10.90
2022-09-17T20:23:46.976Z,10.70
2022-09-17T20:26:14.967Z,10.70
2022-09-17T20:28:42.558Z,10.70
2022-09-17T20:31:15.422Z,10.70
2022-09-17T20:33:42.912Z,10.70
2022-09-17T20:36:18.376Z,10.70
2022-09-17T20:41:32.559Z,10.60
2022-09-17T20:43:59.458Z,10.80
2022-09-17T20:46:29.161Z,10.80
2022-09-17T20:48:58.009Z,10.70
2022-09-17T20:51:27.697Z,10.80
2022-09-17T20:56:25.577Z,10.80
2022-09-17T20:59:07.766Z,11.10
2022-09-17T21:01:37.529Z,10.60
2022-09-17T21:04:07.369Z,11.00
2022-09-17T21:06:37.598Z,10.90
2022-09-17T21:09:06.181Z,10.80
2022-09-17T21:11:34.134Z,10.80
2022-09-17T21:14:01.455Z,10.80
2022-09-17T21:16:29.074Z,10.80
2022-09-17T21:19:01.828Z,10.70
2022-09-17T21:21:29.569Z,10.70
2022-09-17T21:24:03.672Z,10.70
2022-09-17T21:26:31.428Z,10.80
2022-09-17T21:31:32.662Z,10.90
2022-09-17T21:34:05.732Z,10.90
2022-09-17T21:36:35.713Z,11.00
2022-09-17T21:39:10.617Z,11.10
2022-09-17T21:41:42.110Z,11.10
2022-09-17T21:44:11.484Z,11.20
2022-09-17T21:46:38.859Z,11.30
2022-09-17T21:49:06.351Z,11.40
2022-09-17T21:51:36.175Z,11.20
2022-09-17T21:54:08.874Z,11.10
2022-09-17T21:56:36.667Z,11.00
2022-09-17T21:59:06.510Z,11.00
2022-09-17T22:01:39.756Z,11.00
2022-09-17T22:04:13.145Z,11.00
2022-09-17T22:06:40.768Z,11.00
2022-09-17T22:09:12.461Z,11.30
2022-09-17T22:11:39.280Z,11.20
2022-09-17T22:16:39.418Z,11.00
2022-09-17T22:19:07.116Z,11.00
2022-09-17T22:21:36.889Z,11.00
2022-09-17T22:24:05.637Z,10.90
2022-09-17T22:26:35.145Z,10.80
2022-09-17T22:29:08.507Z,10.80
2022-09-17T22:31:35.704Z,10.70
2022-09-17T22:34:02.768Z,10.70
2022-09-17T22:36:29.777Z,10.70
2022-09-17T22:38:58.480Z,10.80
2022-09-17T22:41:30.846Z,10.70
2022-09-17T22:44:03.186Z,10.70
2022-09-17T22:46:33.146Z,10.80
2022-09-17T22:49:00.547Z,10.80
2022-09-17T22:51:31.041Z,10.80
2022-09-17T22:53:58.962Z,10.80
2022-09-17T22:56:27.414Z,10.80
2022-09-17T22:58:56.949Z,10.90
2022-09-17T23:01:28.864Z,10.90
2022-09-17T23:03:56.866Z,10.90
2022-09-17T23:06:29.585Z,10.90
2022-09-17T23:08:56.740Z,11.00
2022-09-17T23:11:27.093Z,11.10
2022-09-17T23:13:57.703Z,11.10
2022-09-17T23:16:25.213Z,11.10
2022-09-17T23:18:52.387Z,11.10
2022-09-17T23:21:20.461Z,11.00
2022-09-17T23:23:49.553Z,11.00
2022-09-17T23:26:22.213Z,11.00
2022-09-17T23:28:50.128Z,10.90
2022-09-17T23:31:26.493Z,10.80
2022-09-17T23:33:54.565Z,10.80
2022-09-17T23:36:27.076Z,10.90
2022-09-17T23:38:55.195Z,10.80
2022-09-17T23:41:24.816Z,10.80
2022-09-17T23:43:56.836Z,10.80
2022-09-17T23:46:25.701Z,10.90
2022-09-17T23:48:53.607Z,10.80
2022-09-17T23:51:26.119Z,10.70
2022-09-17T23:53:54.786Z,10.80
2022-09-17T23:56:25.096Z,10.60
2022-09-17T23:58:53.135Z,10.70
